createdAt,value
2022-09-20T00:01:35.550Z,10.74
2022-09-20T00:04:05.229Z,10.72
2022-09-20T00:06:57.088Z,10.67
2022-09-20T00:09:23.356Z,10.61
2022-09-20T00:11:49.667Z,10.62
2022-09-20T00:14:16.002Z,10.58
2022-09-20T00:16:42.452Z,10.55
2022-09-20T00:19:15.543Z,10.43
2022-09-20T00:21:41.842Z,10.38
2022-09-20T00:24:10.328Z,10.37
2022-09-20T00:26:36.634Z,10.40
2022-09-20T00:29:03.056Z,10.42
2022-09-20T00:31:29.467Z,10.29
2022-09-20T00:34:16.504Z,10.34
2022-09-20T00:36:44.059Z,10.34
2022-09-20T00:39:14.688Z,10.33
2022-09-20T00:41:41.104Z,10.32
2022-09-20T00:44:42.467Z,10.33
2022-09-20T00:47:19.495Z,10.27
2022-09-20T00:49:46.427Z,10.27
2022-09-20T00:52:13.062Z,10.26
2022-09-20T00:54:39.471Z,10.19
2022-09-20T00:57:06.032Z,10.18
2022-09-20T00:59:32.307Z,10.17
2022-09-20T01:02:20.239Z,10.16
2022-09-20T01:04:48.438Z,10.21
2022-09-20T01:07:18.359Z,10.15
2022-09-20T01:09:45.037Z,10.08
2022-09-20T01:12:16.015Z,10.09
2022-09-20T01:14:45.130Z,10.02
2022-09-20T01:17:12.843Z,10.00
2022-09-20T01:20:12.025Z,10.00
2022-09-20T01:22:48.591Z,9.99
2022-09-20T01:25:43.105Z,10.00
2022-09-20T01:28:09.598Z,9.93
2022-09-20T01:30:43.714Z,9.89
2022-09-20T01:33:32.695Z,9.75
2022-09-20T01:36:03.270Z,9.80
2022-09-20T01:38:48.295Z,9.82
2022-09-20T01:41:24.465Z,9.76
2022-09-20T01:43:55.728Z,9.74
2022-09-20T01:46:33.491Z,9.75
2022-09-20T01:49:27.711Z,9.70
2022-09-20T01:52:16.065Z,9.65
2022-09-20T01:55:04.444Z,9.54
2022-09-20T01:57:49.224Z,9.60
2022-09-20T02:00:21.605Z,9.63
2022-09-20T02:03:12.319Z,9.58
2022-09-20T02:05:50.895Z,9.63
2022-09-20T02:08:36.900Z,9.60
2022-09-20T02:11:05.830Z,9.59
2022-09-20T02:14:12.693Z,9.61
2022-09-20T02:16:44.635Z,9.61
2022-09-20T02:19:38.732Z,9.63
2022-09-20T02:22:17.096Z,9.69
2022-09-20T02:24:46.469Z,9.67
2022-09-20T02:27:25.409Z,9.68
2022-09-20T02:30:12.747Z,9.61
2022-09-20T02:32:51.120Z,9.64
2022-09-20T02:35:33.109Z,9.54
2022-09-20T02:38:05.479Z,9.50
2022-09-20T02:40:41.015Z,9.55
2022-09-20T02:43:22.572Z,9.57
2022-09-20T02:46:12.460Z,9.53
2022-09-20T02:48:56.000Z,9.52
2022-09-20T02:51:36.610Z,9.49
2022-09-20T02:54:17.745Z,9.51
2022-09-20T02:56:51.744Z,9.45
2022-09-20T02:59:28.159Z,9.43
2022-09-20T03:02:06.416Z,9.43
2022-09-20T03:05:10.047Z,9.42
2022-09-20T03:08:04.302Z,9.37
2022-09-20T03:10:36.807Z,9.36
2022-09-20T03:13:33.984Z,9.32
2022-09-20T03:16:18.593Z,9.26
2022-09-20T03:19:00.919Z,9.23
2022-09-20T03:21:36.308Z,9.22
2022-09-20T03:24:08.846Z,9.16
2022-09-20T03:26:53.719Z,9.17
2022-09-20T03:29:33.719Z,9.17
2022-09-20T03:32:28.729Z,9.06
2022-09-20T03:35:16.835Z,9.02
2022-09-20T03:38:14.825Z,8.96
2022-09-20T03:41:07.472Z,8.93
2022-09-20T03:43:41.435Z,8.94
2022-09-20T03:46:17.692Z,8.87
2022-09-20T03:48:56.356Z,8.90
2022-09-20T03:51:38.121Z,8.87
2022-09-20T03:54:42.383Z,8.87
2022-09-20T03:57:15.866Z,8.83
2022-09-20T04:00:04.983Z,8.80
2022-09-20T04:02:45.453Z,8.83
2022-09-20T04:05:40.219Z,8.79
2022-09-20T04:08:25.589Z,8.74
2022-09-20T04:11:03.575Z,8.69
2022-09-20T04:13:36.039Z,8.63
2022-09-20T04:16:31.206Z,8.62
2022-09-20T04:19:04.327Z,8.58
2022-09-20T04:21:49.504Z,8.58
2022-09-20T04:24:45.256Z,8.46
2022-09-20T04:27:20.426Z,8.46
2022-09-20T04:29:53.003Z,8.40
2022-09-20T04:32:28.655Z,8.38
2022-09-20T04:35:20.599Z,8.30
2022-09-20T04:37:47.593Z,8.24
2022-09-20T04:40:34.085Z,8.27
2022-09-20T04:43:11.797Z,8.20
2022-09-20T04:46:06.678Z,8.18
2022-09-20T04:48:51.584Z,8.22
2022-09-20T04:51:58.915Z,8.22
2022-09-20T04:54:41.323Z,8.21
2022-09-20T04:57:22.576Z,8.26
2022-09-20T05:00:12.726Z,8.28
2022-09-20T05:03:16.306Z,8.27
2022-09-20T05:05:57.183Z,8.30
2022-09-20T05:08:46.491Z,8.32
2022-09-20T05:11:18.506Z,8.30
2022-09-20T05:14:02.528Z,8.20
2022-09-20T05:16:53.549Z,8.14
2022-09-20T05:19:35.579Z,8.16
2022-09-20T05:22:24.016Z,8.18
2022-09-20T05:25:21.307Z,8.16
2022-09-20T05:28:08.732Z,8.06
2022-09-20T05:30:44.626Z,8.22
2022-09-20T05:33:37.418Z,8.36
2022-09-20T05:36:22.226Z,8.43
2022-09-20T05:39:03.647Z,8.48
2022-09-20T05:41:42.071Z,8.60
2022-09-20T05:44:17.177Z,8.67
2022-09-20T05:47:03.508Z,8.68
2022-09-20T05:49:50.324Z,8.76
2022-09-20T05:52:28.815Z,8.83
2022-09-20T05:55:34.230Z,8.98
2022-09-20T05:58:33.180Z,9.07
2022-09-20T06:01:15.504Z,9.14
2022-09-20T06:04:20.174Z,9.15
2022-09-20T06:07:21.343Z,9.06
2022-09-20T06:10:08.765Z,9.07
2022-09-20T06:12:35.664Z,9.07
2022-09-20T06:15:32.703Z,9.09
2022-09-20T06:18:36.696Z,9.02
2022-09-20T06:21:29.188Z,9.04
2022-09-20T06:24:00.969Z,9.03
2022-09-20T06:26:33.638Z,9.09
2022-09-20T06:29:05.453Z,9.20
2022-09-20T06:31:32.031Z,9.36
2022-09-20T06:34:08.500Z,9.45
2022-09-20T06:36:56.236Z,9.54
2022-09-20T06:39:57.912Z,9.67
2022-09-20T06:42:27.289Z,9.83
2022-09-20T06:44:54.219Z,9.94
2022-09-20T06:47:21.690Z,10.04
2022-09-20T06:49:50.072Z,10.21
2022-09-20T06:52:18.884Z,10.31
2022-09-20T06:54:46.879Z,10.48
2022-09-20T06:57:18.085Z,10.52
2022-09-20T06:59:45.515Z,10.71
2022-09-20T07:02:11.842Z,10.78
2022-09-20T07:07:30.143Z,11.07
2022-09-20T07:09:56.675Z,11.08
2022-09-20T07:12:22.958Z,11.18
2022-09-20T07:14:50.517Z,11.23
2022-09-20T07:17:16.787Z,11.33
2022-09-20T07:19:43.145Z,11.36
2022-09-20T07:22:09.530Z,11.50
2022-09-20T07:24:36.332Z,11.61
2022-09-20T07:27:05.391Z,11.78
2022-09-20T07:29:32.175Z,11.85
2022-09-20T07:31:58.546Z,11.98
2022-09-20T07:34:25.628Z,12.11
2022-09-20T07:36:52.216Z,12.22
2022-09-20T07:39:18.570Z,12.29
2022-09-20T07:41:48.256Z,12.33
2022-09-20T07:44:21.365Z,12.45
2022-09-20T07:46:49.176Z,12.55
2022-09-20T07:49:15.567Z,12.54
2022-09-20T07:51:41.958Z,12.77
2022-09-20T07:54:08.692Z,12.85
2022-09-20T07:56:35.198Z,12.94
2022-09-20T07:59:01.821Z,13.01
2022-09-20T08:01:28.253Z,13.06
2022-09-20T08:03:54.904Z,13.05
2022-09-20T08:06:21.743Z,13.04
2022-09-20T08:08:48.261Z,13.01
2022-09-20T08:11:18.015Z,13.09
2022-09-20T08:16:38.466Z,13.32
2022-09-20T08:19:04.867Z,13.48
2022-09-20T08:21:32.916Z,13.53
2022-09-20T08:23:59.967Z,13.68
2022-09-20T08:26:29.073Z,13.62
2022-09-20T08:28:57.663Z,13.69
2022-09-20T08:31:27.329Z,13.59
2022-09-20T08:33:54.491Z,13.64
2022-09-20T08:36:24.467Z,13.76
2022-09-20T08:41:51.287Z,14.13
2022-09-20T08:44:27.755Z,14.23
2022-09-20T08:47:09.709Z,14.24
2022-09-20T08:49:37.252Z,14.26
2022-09-20T08:52:10.279Z,14.32
2022-09-20T08:54:36.995Z,14.27
2022-09-20T08:57:10.691Z,14.63
2022-09-20T08:59:37.020Z,14.96
2022-09-20T09:02:03.612Z,14.90
2022-09-20T09:04:35.654Z,14.92
2022-09-20T09:07:03.030Z,14.79
2022-09-20T09:09:30.442Z,14.95
2022-09-20T09:11:58.688Z,15.05
2022-09-20T09:14:49.526Z,15.09
2022-09-20T09:17:18.424Z,15.30
2022-09-20T09:19:49.609Z,15.45
2022-09-20T09:22:35.166Z,15.51
2022-09-20T09:25:17.114Z,15.61
2022-09-20T09:28:02.045Z,15.62
2022-09-20T09:30:30.169Z,15.75
2022-09-20T09:33:14.916Z,15.72
2022-09-20T09:35:41.579Z,16.08
2022-09-20T09:38:17.845Z,16.15
2022-09-20T09:41:01.942Z,16.31
2022-09-20T09:43:33.330Z,16.53
2022-09-20T09:46:23.479Z,16.68
2022-09-20T09:49:15.406Z,16.73
2022-09-20T09:52:01.533Z,16.67
2022-09-20T09:55:05.291Z,16.53
2022-09-20T09:57:32.939Z,16.22
2022-09-20T10:00:31.439Z,16.30
2022-09-20T10:03:12.292Z,15.88
2022-09-20T10:06:10.885Z,15.40
2022-09-20T10:08:54.971Z,15.42
2022-09-20T10:11:37.923Z,14.98
2022-09-20T10:14:19.364Z,14.72
2022-09-20T10:17:04.475Z,15.00
2022-09-20T10:19:56.503Z,14.86
2022-09-20T10:23:06.662Z,14.75
2022-09-20T10:25:56.139Z,14.58
2022-09-20T10:28:31.069Z,14.75
2022-09-20T10:31:25.846Z,14.80
2022-09-20T10:34:29.628Z,15.09
2022-09-20T10:37:00.593Z,15.24
2022-09-20T10:39:43.399Z,15.38
2022-09-20T10:42:31.087Z,15.61
2022-09-20T10:45:05.952Z,15.66
2022-09-20T10:47:49.856Z,15.47
2022-09-20T10:50:29.687Z,15.56
2022-09-20T10:53:05.324Z,15.60
2022-09-20T10:55:42.260Z,15.72
2022-09-20T10:58:30.591Z,15.55
2022-09-20T11:01:09.900Z,14.65
2022-09-20T11:04:09.012Z,13.96
2022-09-20T11:06:58.556Z,13.54
2022-09-20T11:09:29.969Z,13.42
2022-09-20T11:12:10.665Z,13.54
2022-09-20T11:14:48.337Z,13.62
2022-09-20T11:17:24.297Z,13.39
2022-09-20T11:19:57.536Z,13.38
2022-09-20T11:22:32.372Z,13.38
2022-09-20T11:25:11.376Z,13.66
2022-09-20T11:28:36.255Z,14.01
2022-09-20T11:31:14.184Z,14.04
2022-09-20T11:33:56.295Z,14.19
2022-09-20T11:36:30.422Z,14.24
2022-09-20T11:39:14.263Z,14.37
2022-09-20T11:41:41.815Z,14.40
2022-09-20T11:44:13.943Z,14.01
2022-09-20T11:47:00.371Z,14.05
2022-09-20T11:49:43.972Z,13.85
2022-09-20T11:52:28.629Z,13.94
2022-09-20T11:55:23.435Z,14.28
2022-09-20T11:58:22.381Z,14.51
2022-09-20T12:00:54.289Z,14.72
2022-09-20T12:03:36.306Z,14.89
2022-09-20T12:06:08.289Z,14.67
2022-09-20T12:08:41.544Z,14.93
2022-09-20T12:11:13.763Z,14.97
2022-09-20T12:13:43.287Z,14.79
2022-09-20T12:16:34.619Z,14.80
2022-09-20T12:19:07.002Z,14.66
2022-09-20T12:21:58.879Z,14.58
2022-09-20T12:24:33.953Z,14.79
2022-09-20T12:27:20.161Z,14.88
2022-09-20T12:29:47.487Z,15.10
2022-09-20T12:32:36.920Z,15.42
2022-09-20T12:35:35.207Z,15.44
2022-09-20T12:38:26.327Z,15.61
2022-09-20T12:41:08.319Z,15.37
2022-09-20T12:43:38.768Z,15.15
2022-09-20T12:46:11.255Z,15.22
2022-09-20T12:48:38.387Z,15.11
2022-09-20T12:51:39.233Z,15.14
2022-09-20T12:54:09.823Z,15.07
2022-09-20T12:56:39.016Z,15.29
2022-09-20T12:59:18.140Z,15.62
2022-09-20T13:01:45.978Z,15.87
2022-09-20T13:04:57.164Z,15.97
2022-09-20T13:07:34.925Z,16.12
2022-09-20T13:10:06.904Z,16.10
2022-09-20T13:12:37.140Z,16.04
2022-09-20T13:15:05.134Z,16.31
2022-09-20T13:17:32.182Z,16.26
2022-09-20T13:19:59.514Z,16.20
2022-09-20T13:22:28.911Z,15.89
2022-09-20T13:25:01.300Z,15.94
2022-09-20T13:27:34.364Z,15.91
2022-09-20T13:30:09.961Z,15.92
2022-09-20T13:32:41.495Z,15.27
2022-09-20T13:35:10.795Z,15.04
2022-09-20T13:37:42.948Z,14.91
2022-09-20T13:40:19.099Z,15.02
2022-09-20T13:42:47.733Z,15.39
2022-09-20T13:45:15.515Z,15.62
2022-09-20T13:47:43.652Z,15.68
2022-09-20T13:50:27.112Z,15.83
2022-09-20T13:52:58.817Z,15.69
2022-09-20T13:55:25.169Z,15.66
2022-09-20T13:57:53.157Z,15.44
2022-09-20T14:00:19.771Z,15.65
2022-09-20T14:02:48.675Z,15.74
2022-09-20T14:05:18.761Z,15.66
2022-09-20T14:07:49.123Z,15.40
2022-09-20T14:10:31.002Z,15.46
2022-09-20T14:13:01.047Z,15.53
2022-09-20T14:15:33.515Z,15.59
2022-09-20T14:18:02.833Z,15.77
2022-09-20T14:20:29.192Z,15.72
2022-09-20T14:22:59.030Z,15.83
2022-09-20T14:25:27.128Z,15.77
2022-09-20T14:28:07.034Z,15.66
2022-09-20T14:30:36.823Z,15.61
2022-09-20T14:33:06.705Z,15.56
2022-09-20T14:35:33.428Z,15.44
2022-09-20T14:38:07.504Z,15.41
2022-09-20T14:40:48.474Z,15.31
2022-09-20T14:43:32.840Z,15.19
2022-09-20T14:46:02.510Z,15.17
2022-09-20T14:48:38.449Z,15.12
2022-09-20T14:51:18.009Z,14.97
2022-09-20T14:53:46.665Z,14.92
2022-09-20T14:56:15.805Z,14.91
2022-09-20T14:59:27.523Z,14.87
2022-09-20T15:02:15.934Z,14.93
2022-09-20T15:04:54.183Z,14.83
2022-09-20T15:07:21.036Z,14.84
2022-09-20T15:09:47.419Z,14.87
2022-09-20T15:12:21.366Z,14.83
2022-09-20T15:14:48.405Z,14.79
2022-09-20T15:17:19.964Z,14.77
2022-09-20T15:19:47.951Z,14.76
2022-09-20T15:22:15.083Z,14.87
2022-09-20T15:24:42.205Z,14.95
2022-09-20T15:27:11.795Z,15.03
2022-09-20T15:29:38.096Z,14.93
2022-09-20T15:32:05.778Z,15.01
2022-09-20T15:34:32.567Z,15.03
2022-09-20T15:36:58.865Z,15.05
2022-09-20T15:39:25.877Z,15.03
2022-09-20T15:41:52.659Z,15.07
2022-09-20T15:44:19.820Z,14.97
2022-09-20T15:46:46.519Z,14.92
2022-09-20T15:49:12.903Z,15.07
2022-09-20T15:51:39.393Z,15.04
2022-09-20T15:54:07.628Z,15.06
2022-09-20T15:56:36.983Z,15.04
2022-09-20T15:59:05.789Z,14.97
2022-09-20T16:01:44.462Z,15.05
2022-09-20T16:04:12.324Z,15.05
2022-09-20T16:06:41.103Z,15.07
2022-09-20T16:09:08.281Z,15.07
2022-09-20T16:11:35.226Z,14.91
2022-09-20T16:14:01.773Z,14.95
2022-09-20T16:16:30.400Z,15.00
2022-09-20T16:19:15.665Z,14.99
2022-09-20T16:21:43.956Z,14.92
2022-09-20T16:24:13.948Z,14.76
2022-09-20T16:26:40.363Z,14.73
2022-09-20T16:29:11.587Z,14.73
2022-09-20T16:31:42.452Z,14.63
2022-09-20T16:34:16.839Z,14.43
2022-09-20T16:36:44.168Z,14.46
2022-09-20T16:39:11.847Z,14.42
2022-09-20T16:41:39.407Z,14.46
2022-09-20T16:44:05.832Z,14.27
2022-09-20T16:46:32.768Z,14.20
2022-09-20T16:49:00.770Z,14.18
2022-09-20T16:51:33.160Z,14.20
2022-09-20T16:54:12.510Z,14.14
2022-09-20T16:56:47.091Z,13.92
2022-09-20T16:59:15.825Z,13.98
2022-09-20T17:01:42.983Z,14.05
2022-09-20T17:04:09.815Z,14.05
2022-09-20T17:06:38.003Z,14.03
2022-09-20T17:09:06.059Z,13.73
2022-09-20T17:11:35.775Z,13.67
2022-09-20T17:14:02.281Z,13.66
2022-09-20T17:16:31.653Z,13.63
2022-09-20T17:19:07.296Z,13.73
2022-09-20T17:21:35.947Z,13.77
2022-09-20T17:24:04.049Z,13.72
2022-09-20T17:26:33.107Z,13.78
2022-09-20T17:29:01.672Z,13.73
2022-09-20T17:31:34.230Z,13.73
2022-09-20T17:34:02.169Z,13.60
2022-09-20T17:36:30.443Z,13.63
2022-09-20T17:39:03.648Z,13.54
2022-09-20T17:41:30.774Z,13.49
2022-09-20T17:43:59.049Z,13.44
2022-09-20T17:46:29.761Z,13.37
2022-09-20T17:49:00.512Z,13.31
2022-09-20T17:51:29.344Z,13.27
2022-09-20T17:53:55.924Z,13.23
2022-09-20T17:56:28.526Z,12.99
2022-09-20T17:58:56.667Z,12.86
2022-09-20T18:01:23.856Z,12.86
2022-09-20T18:03:50.326Z,12.75
2022-09-20T18:06:24.239Z,12.72
2022-09-20T18:08:53.236Z,12.71
2022-09-20T18:11:21.966Z,12.55
2022-09-20T18:13:48.411Z,12.47
2022-09-20T18:16:17.750Z,12.46
2022-09-20T18:18:46.277Z,12.36
2022-09-20T18:21:16.722Z,12.48
2022-09-20T18:23:44.432Z,12.36
2022-09-20T18:26:22.189Z,12.24
2022-09-20T18:29:05.546Z,12.20
2022-09-20T18:31:44.934Z,12.19
2022-09-20T18:34:26.673Z,12.02
2022-09-20T18:36:54.988Z,12.21
2022-09-20T18:39:28.729Z,12.20
2022-09-20T18:41:55.638Z,12.24
2022-09-20T18:44:23.121Z,12.16
2022-09-20T18:46:52.202Z,12.18
2022-09-20T18:49:20.489Z,12.21
2022-09-20T18:51:48.232Z,12.13
2022-09-20T18:54:15.220Z,12.21
2022-09-20T18:56:44.187Z,12.14
2022-09-20T18:59:20.870Z,12.21
2022-09-20T19:01:50.446Z,12.10
2022-09-20T19:04:45.663Z,12.20
2022-09-20T19:07:27.212Z,12.28
2022-09-20T19:10:05.711Z,12.24
2022-09-20T19:12:42.877Z,12.19
2022-09-20T19:15:22.615Z,12.14
2022-09-20T19:18:25.140Z,12.26
2022-09-20T19:21:00.243Z,12.17
2022-09-20T19:23:45.102Z,12.14
2022-09-20T19:26:28.763Z,12.23
2022-09-20T19:29:00.065Z,12.12
2022-09-20T19:31:32.493Z,12.14
2022-09-20T19:34:02.890Z,12.29
2022-09-20T19:36:50.039Z,12.26
2022-09-20T19:39:40.000Z,12.13
2022-09-20T19:42:09.287Z,12.10
2022-09-20T19:44:51.547Z,12.05
2022-09-20T19:47:25.388Z,12.09
2022-09-20T19:50:18.280Z,12.22
2022-09-20T19:52:44.965Z,12.25
2022-09-20T19:55:13.161Z,12.21
2022-09-20T19:57:46.738Z,12.08
2022-09-20T20:00:15.252Z,12.08
2022-09-20T20:02:45.673Z,12.02
2022-09-20T20:05:14.011Z,12.07
2022-09-20T20:07:59.888Z,12.00
2022-09-20T20:10:30.272Z,11.99
2022-09-20T20:13:34.491Z,12.03
2022-09-20T20:16:12.197Z,11.95
2022-09-20T20:18:58.492Z,11.94
2022-09-20T20:21:36.259Z,11.92
2022-09-20T20:24:20.830Z,11.88
2022-09-20T20:26:47.215Z,11.85
2022-09-20T20:29:13.760Z,11.93
2022-09-20T20:31:40.534Z,11.91
2022-09-20T20:34:08.656Z,11.90
2022-09-20T20:36:35.243Z,11.94
2022-09-20T20:39:02.460Z,12.07
2022-09-20T20:41:31.559Z,11.88
2022-09-20T20:43:57.871Z,11.93
2022-09-20T20:46:25.129Z,11.92
2022-09-20T20:48:51.556Z,11.80
2022-09-20T20:51:20.154Z,11.84
2022-09-20T20:53:49.251Z,11.83
2022-09-20T20:56:18.304Z,11.81
2022-09-20T20:58:46.938Z,11.80
2022-09-20T21:01:14.728Z,11.71
2022-09-20T21:03:43.471Z,11.63
2022-09-20T21:06:10.385Z,11.56
2022-09-20T21:08:38.795Z,11.51
2022-09-20T21:11:11.421Z,11.47
2022-09-20T21:13:39.362Z,11.45
2022-09-20T21:16:08.916Z,11.44
2022-09-20T21:18:35.738Z,11.46
2022-09-20T21:21:03.643Z,11.47
2022-09-20T21:23:34.172Z,11.34
2022-09-20T21:26:07.653Z,11.33
2022-09-20T21:28:36.669Z,11.22
2022-09-20T21:31:07.438Z,11.22
2022-09-20T21:33:35.748Z,11.17
2022-09-20T21:36:02.999Z,11.10
2022-09-20T21:38:30.195Z,11.01
2022-09-20T21:41:24.303Z,10.93
2022-09-20T21:43:55.716Z,10.88
2022-09-20T21:46:29.652Z,10.83
2022-09-20T21:48:57.676Z,10.77
2022-09-20T21:51:25.979Z,10.78
2022-09-20T21:53:54.226Z,10.75
2022-09-20T21:56:20.520Z,10.70
2022-09-20T21:58:46.901Z,10.71
2022-09-20T22:01:16.288Z,10.62
2022-09-20T22:03:48.319Z,10.51
2022-09-20T22:06:25.992Z,10.45
2022-09-20T22:08:58.288Z,10.39
2022-09-20T22:11:27.252Z,10.26
2022-09-20T22:13:55.107Z,10.26
2022-09-20T22:16:36.697Z,10.21
2022-09-20T22:19:04.363Z,10.21
2022-09-20T22:21:36.810Z,10.07
2022-09-20T22:24:05.930Z,10.00
2022-09-20T22:26:47.186Z,9.85
2022-09-20T22:29:14.587Z,9.71
2022-09-20T22:31:46.564Z,9.78
2022-09-20T22:34:20.897Z,9.66
2022-09-20T22:36:47.918Z,9.65
2022-09-20T22:39:14.883Z,9.63
2022-09-20T22:41:42.500Z,9.63
2022-09-20T22:44:09.810Z,9.63
2022-09-20T22:46:36.487Z,9.67
2022-09-20T22:49:05.694Z,9.61
2022-09-20T22:51:33.283Z,9.55
2022-09-20T22:54:00.809Z,9.53
2022-09-20T22:56:31.051Z,9.58
2022-09-20T22:59:00.114Z,9.52
2022-09-20T23:01:29.427Z,9.53
2022-09-20T23:04:00.071Z,9.55
2022-09-20T23:06:29.629Z,9.50
2022-09-20T23:08:58.755Z,9.47
2022-09-20T23:11:25.280Z,9.43
2022-09-20T23:13:54.957Z,9.36
2022-09-20T23:16:24.130Z,9.29
2022-09-20T23:18:52.355Z,9.27
2022-09-20T23:21:19.589Z,9.28
2022-09-20T23:23:47.676Z,9.24
2022-09-20T23:26:16.989Z,9.23
2022-09-20T23:28:46.908Z,9.15
2022-09-20T23:31:17.862Z,9.15
2022-09-20T23:33:49.170Z,9.12
2022-09-20T23:36:17.164Z,9.06
2022-09-20T23:38:44.031Z,8.96
2022-09-20T23:41:13.538Z,8.89
2022-09-20T23:43:41.008Z,8.99
2022-09-20T23:46:08.632Z,8.94
2022-09-20T23:48:36.209Z,8.93
2022-09-20T23:51:04.479Z,8.96
2022-09-20T23:53:31.687Z,9.02
2022-09-20T23:55:58.040Z,8.99
2022-09-20T23:58:24.608Z,8.99
